createdAt,value
2018-03-11T00:00:38.186Z,98733.60
2018-03-11T00:03:04.452Z,98728.53
2018-03-11T00:05:30.802Z,98731.29
2018-03-11T00:07:57.125Z,98728.24
2018-03-11T00:10:23.470Z,98731.63
2018-03-11T00:12:49.802Z,98728.42
2018-03-11T00:15:16.101Z,98727.53
2018-03-11T00:17:42.456Z,98726.42
2018-03-11T00:20:08.769Z,98723.94
2018-03-11T00:22:35.038Z,98722.80
2018-03-11T00:25:02.120Z,98724.39
2018-03-11T00:27:28.382Z,98726.32
2018-03-11T00:29:54.687Z,98719.58
2018-03-11T00:32:21.005Z,98713.95
2018-03-11T00:34:47.273Z,98717.61
2018-03-11T00:37:13.609Z,98716.57
2018-03-11T00:39:39.929Z,98717.03
2018-03-11T00:42:06.223Z,98711.52
2018-03-11T00:44:32.562Z,98709.34
2018-03-11T00:46:58.926Z,98708.33
2018-03-11T00:49:25.281Z,98708.64
2018-03-11T00:51:51.598Z,98702.85
2018-03-11T00:54:17.916Z,98696.34
2018-03-11T00:56:44.225Z,98697.48
2018-03-11T00:59:10.542Z,98700.45
2018-03-11T01:01:37.156Z,98685.62
2018-03-11T01:04:04.254Z,98687.34
2018-03-11T01:06:31.461Z,98686.97
2018-03-11T01:08:58.594Z,98689.44
2018-03-11T01:11:24.921Z,98685.81
2018-03-11T01:13:51.219Z,98683.67
2018-03-11T01:16:17.540Z,98679.62
2018-03-11T01:18:43.857Z,98685.41
2018-03-11T01:21:10.192Z,98683.25
2018-03-11T01:23:37.232Z,98675.03
2018-03-11T01:26:03.559Z,98675.23
2018-03-11T01:28:29.920Z,98673.18
2018-03-11T01:30:56.323Z,98679.75
2018-03-11T01:33:24.348Z,98672.42
2018-03-11T01:35:50.705Z,98676.17
2018-03-11T01:38:17.836Z,98674.43
2018-03-11T01:40:44.143Z,98679.14
2018-03-11T01:43:10.468Z,98665.55
2018-03-11T01:45:36.790Z,98661.98
2018-03-11T01:48:03.142Z,98659.83
2018-03-11T01:50:29.456Z,98656.22
2018-03-11T01:53:07.991Z,98654.05
2018-03-11T01:55:34.287Z,98644.45
2018-03-11T01:58:00.619Z,98642.05
2018-03-11T02:00:26.898Z,98639.58
2018-03-11T02:02:53.225Z,98641.81
2018-03-11T02:05:19.535Z,98647.78
2018-03-11T02:07:45.835Z,98653.48
2018-03-11T02:10:12.098Z,98656.16
2018-03-11T02:12:38.395Z,98653.76
2018-03-11T02:15:04.691Z,98658.28
2018-03-11T02:17:31.003Z,98655.58
2018-03-11T02:19:57.318Z,98655.22
2018-03-11T02:22:23.625Z,98643.48
2018-03-11T02:24:49.915Z,98642.99
2018-03-11T02:27:16.228Z,98630.74
2018-03-11T02:29:42.513Z,98625.24
2018-03-11T02:32:08.832Z,98624.84
2018-03-11T02:34:35.844Z,98607.65
2018-03-11T02:37:02.160Z,98600.05
2018-03-11T02:39:28.450Z,98605.00
2018-03-11T02:41:54.732Z,98606.19
2018-03-11T02:44:21.012Z,98606.73
2018-03-11T02:46:47.290Z,98607.02
2018-03-11T02:49:13.579Z,98597.38
2018-03-11T02:51:39.914Z,98598.83
2018-03-11T02:54:11.227Z,98612.41
2018-03-11T02:56:38.223Z,98602.20
2018-03-11T02:59:04.512Z,98597.39
2018-03-11T03:01:31.529Z,98601.19
2018-03-11T03:03:57.817Z,98592.61
2018-03-11T03:06:24.123Z,98592.34
2018-03-11T03:08:51.184Z,98594.28
2018-03-11T03:11:17.521Z,98588.62
2018-03-11T03:13:43.832Z,98587.78
2018-03-11T03:16:10.863Z,98592.66
2018-03-11T03:18:37.920Z,98593.26
2018-03-11T03:21:04.959Z,98588.19
2018-03-11T03:23:31.254Z,98587.48
2018-03-11T03:25:57.559Z,98589.64
2018-03-11T03:28:23.814Z,98569.30
2018-03-11T03:30:50.152Z,98580.00
2018-03-11T03:33:16.421Z,98581.20
2018-03-11T03:35:43.457Z,98575.83
2018-03-11T03:38:09.801Z,98565.34
2018-03-11T03:40:36.876Z,98572.19
2018-03-11T03:43:03.163Z,98570.39
2018-03-11T03:45:29.455Z,98571.21
2018-03-11T03:47:55.789Z,98569.72
2018-03-11T03:50:22.057Z,98568.94
2018-03-11T03:52:48.392Z,98561.91
2018-03-11T03:55:15.447Z,98561.53
2018-03-11T03:57:42.496Z,98551.86
2018-03-11T04:00:09.526Z,98555.30
2018-03-11T04:02:36.566Z,98546.47
2018-03-11T04:05:02.851Z,98548.53
2018-03-11T04:07:29.212Z,98552.27
2018-03-11T04:09:55.530Z,98552.55
2018-03-11T04:12:21.859Z,98551.19
2018-03-11T04:14:48.161Z,98552.41
2018-03-11T04:17:14.418Z,98548.03
2018-03-11T04:19:40.711Z,98553.47
2018-03-11T04:22:07.755Z,98547.82
2018-03-11T04:24:34.804Z,98546.52
2018-03-11T04:27:01.841Z,98542.08
2018-03-11T04:29:28.200Z,98538.14
2018-03-11T04:31:54.517Z,98531.77
2018-03-11T04:34:21.535Z,98527.03
2018-03-11T04:36:47.864Z,98528.45
2018-03-11T04:39:14.195Z,98520.63
2018-03-11T04:41:47.311Z,98520.23
2018-03-11T04:44:14.388Z,98522.18
2018-03-11T04:46:40.676Z,98523.83
2018-03-11T04:49:07.076Z,98524.75
2018-03-11T04:51:33.355Z,98521.31
2018-03-11T04:53:59.618Z,98524.02
2018-03-11T04:56:25.923Z,98523.63
2018-03-11T04:58:52.189Z,98523.45
2018-03-11T05:01:18.507Z,98515.69
2018-03-11T05:03:44.841Z,98513.53
2018-03-11T05:06:11.141Z,98511.58
2018-03-11T05:08:38.180Z,98510.70
2018-03-11T05:11:05.247Z,98512.59
2018-03-11T05:13:31.558Z,98516.75
2018-03-11T05:15:58.607Z,98515.50
2018-03-11T05:18:24.914Z,98513.83
2018-03-11T05:20:51.180Z,98515.28
2018-03-11T05:23:17.508Z,98510.64
2018-03-11T05:25:43.812Z,98510.84
2018-03-11T05:28:10.130Z,98513.88
2018-03-11T05:30:36.439Z,98519.05
2018-03-11T05:33:02.764Z,98515.36
2018-03-11T05:35:29.057Z,98516.13
2018-03-11T05:37:56.171Z,98519.41
2018-03-11T05:40:22.475Z,98523.91
2018-03-11T05:42:48.834Z,98517.73
2018-03-11T05:45:15.177Z,98522.66
2018-03-11T05:47:41.579Z,98516.13
2018-03-11T05:50:07.867Z,98520.02
2018-03-11T05:52:34.887Z,98515.82
2018-03-11T05:55:01.220Z,98519.56
2018-03-11T05:57:27.539Z,98520.36
2018-03-11T05:59:53.818Z,98516.04
2018-03-11T06:02:20.168Z,98521.63
2018-03-11T06:04:46.402Z,98516.64
2018-03-11T06:07:12.752Z,98512.64
2018-03-11T06:09:39.058Z,98514.41
2018-03-11T06:12:05.395Z,98515.60
2018-03-11T06:14:31.660Z,98511.45
2018-03-11T06:16:57.973Z,98509.38
2018-03-11T06:19:24.280Z,98506.92
2018-03-11T06:21:50.560Z,98508.30
2018-03-11T06:24:16.854Z,98511.33
2018-03-11T06:26:43.178Z,98510.01
2018-03-11T06:29:09.476Z,98515.48
2018-03-11T06:31:35.780Z,98511.20
2018-03-11T06:34:02.184Z,98505.75
2018-03-11T06:36:28.439Z,98516.24
2018-03-11T06:38:54.877Z,98514.70
2018-03-11T06:41:21.191Z,98515.61
2018-03-11T06:43:47.509Z,98508.97
2018-03-11T06:46:13.822Z,98510.14
2018-03-11T06:48:40.119Z,98508.88
2018-03-11T06:51:06.501Z,98508.96
2018-03-11T06:53:32.861Z,98511.10
2018-03-11T06:55:59.186Z,98507.08
2018-03-11T06:58:25.630Z,98508.51
2018-03-11T07:00:51.923Z,98504.00
2018-03-11T07:03:18.379Z,98501.47
2018-03-11T07:05:44.698Z,98501.54
2018-03-11T07:08:11.021Z,98490.54
2018-03-11T07:10:37.355Z,98489.95
2018-03-11T07:13:03.690Z,98487.91
2018-03-11T07:15:30.061Z,98488.20
2018-03-11T07:17:56.371Z,98491.02
2018-03-11T07:20:22.690Z,98485.24
2018-03-11T07:22:48.938Z,98484.00
2018-03-11T07:25:15.276Z,98482.75
2018-03-11T07:27:41.606Z,98481.88
2018-03-11T07:30:07.939Z,98488.38
2018-03-11T07:32:34.239Z,98481.84
2018-03-11T07:35:00.598Z,98482.75
2018-03-11T07:37:26.906Z,98486.20
2018-03-11T07:40:17.210Z,98477.19
2018-03-11T07:42:50.414Z,98473.67
2018-03-11T07:45:16.708Z,98478.78
2018-03-11T07:47:43.070Z,98484.45
2018-03-11T07:50:09.371Z,98486.62
2018-03-11T07:52:35.633Z,98487.41
2018-03-11T07:55:01.960Z,98483.38
2018-03-11T07:57:28.259Z,98488.55
2018-03-11T07:59:54.515Z,98479.75
2018-03-11T08:02:20.853Z,98472.34
2018-03-11T08:04:47.195Z,98462.91
2018-03-11T08:07:14.267Z,98462.98
2018-03-11T08:09:41.481Z,98455.67
2018-03-11T08:12:08.839Z,98456.35
2018-03-11T08:14:35.313Z,98444.81
2018-03-11T08:17:01.712Z,98446.45
2018-03-11T08:19:28.043Z,98454.02
2018-03-11T08:21:54.388Z,98456.54
2018-03-11T08:24:21.388Z,98460.04
2018-03-11T08:26:47.696Z,98446.33
2018-03-11T08:29:13.979Z,98440.25
2018-03-11T08:31:40.751Z,98438.73
2018-03-11T08:34:07.784Z,98435.67
2018-03-11T08:36:34.099Z,98432.13
2018-03-11T08:39:00.694Z,98437.81
2018-03-11T08:41:27.035Z,98435.62
2018-03-11T08:43:53.327Z,98431.86
2018-03-11T08:46:19.901Z,98431.69
2018-03-11T08:48:46.491Z,98427.64
2018-03-11T08:51:13.705Z,98430.23
2018-03-11T08:53:40.243Z,98426.70
2018-03-11T08:56:06.869Z,98415.78
2018-03-11T08:58:33.210Z,98412.86
2018-03-11T09:00:59.637Z,98405.29
2018-03-11T09:03:25.956Z,98413.94
2018-03-11T09:05:52.301Z,98409.17
2018-03-11T09:08:19.509Z,98402.11
2018-03-11T09:10:46.540Z,98391.20
2018-03-11T09:13:12.898Z,98387.62
2018-03-11T09:15:39.444Z,98390.64
2018-03-11T09:18:05.776Z,98399.80
2018-03-11T09:20:32.109Z,98400.72
2018-03-11T09:22:58.422Z,98394.96
2018-03-11T09:25:24.750Z,98397.08
2018-03-11T09:27:51.798Z,98389.69
2018-03-11T09:30:18.876Z,98382.66
2018-03-11T09:32:45.185Z,98381.23
2018-03-11T09:35:12.240Z,98369.74
2018-03-11T09:37:38.505Z,98368.41
2018-03-11T09:40:05.602Z,98371.19
2018-03-11T09:42:32.668Z,98370.18
2018-03-11T09:44:58.969Z,98383.70
2018-03-11T09:47:25.447Z,98388.50
2018-03-11T09:49:51.800Z,98376.74
2018-03-11T09:52:18.824Z,98377.20
2018-03-11T09:54:45.470Z,98360.56
2018-03-11T09:57:11.749Z,98358.92
2018-03-11T09:59:38.798Z,98364.83
2018-03-11T10:02:05.313Z,98357.94
2018-03-11T10:04:32.346Z,98366.08
2018-03-11T10:06:58.615Z,98363.25
2018-03-11T10:09:25.792Z,98371.23
2018-03-11T10:11:52.178Z,98362.58
2018-03-11T10:14:18.622Z,98360.80
2018-03-11T10:16:45.024Z,98361.05
2018-03-11T10:19:11.320Z,98373.09
2018-03-11T10:21:37.815Z,98367.48
2018-03-11T10:24:04.128Z,98363.44
2018-03-11T10:26:30.442Z,98355.45
2018-03-11T10:28:56.748Z,98360.09
2018-03-11T10:31:23.507Z,98350.37
2018-03-11T10:33:55.159Z,98342.59
2018-03-11T10:36:21.884Z,98342.99
2018-03-11T10:38:48.554Z,98335.85
2018-03-11T10:41:15.999Z,98342.91
2018-03-11T10:43:42.470Z,98352.38
2018-03-11T10:46:10.286Z,98354.30
2018-03-11T10:48:41.449Z,98353.95
2018-03-11T10:51:07.769Z,98361.81
2018-03-11T10:53:34.089Z,98342.54
2018-03-11T10:56:03.506Z,98334.96
2018-03-11T10:58:29.812Z,98326.59
2018-03-11T11:00:56.960Z,98320.61
2018-03-11T11:03:28.104Z,98308.75
2018-03-11T11:05:55.503Z,98306.72
2018-03-11T11:08:21.822Z,98306.59
2018-03-11T11:10:48.111Z,98300.77
2018-03-11T11:13:17.444Z,98287.40
2018-03-11T11:15:46.126Z,98280.42
2018-03-11T11:18:12.636Z,98282.46
2018-03-11T11:20:42.109Z,98282.57
2018-03-11T11:23:09.303Z,98283.31
2018-03-11T11:25:37.100Z,98278.27
2018-03-11T11:28:04.483Z,98279.64
2018-03-11T11:30:32.091Z,98277.73
2018-03-11T11:32:59.118Z,98275.69
2018-03-11T11:35:25.446Z,98275.40
2018-03-11T11:37:53.368Z,98276.72
2018-03-11T11:40:19.712Z,98279.17
2018-03-11T11:42:46.030Z,98270.42
2018-03-11T11:45:12.322Z,98264.55
2018-03-11T11:47:39.454Z,98259.47
2018-03-11T11:50:05.778Z,98254.91
2018-03-11T11:52:34.196Z,98256.25
2018-03-11T11:55:00.655Z,98243.15
2018-03-11T11:57:26.995Z,98242.49
2018-03-11T11:59:53.295Z,98238.63
2018-03-11T12:02:19.607Z,98225.02
2018-03-11T12:04:47.562Z,98226.77
2018-03-11T12:07:13.989Z,98213.62
2018-03-11T12:09:40.625Z,98192.72
2018-03-11T12:12:07.945Z,98199.52
2018-03-11T12:14:34.708Z,98204.88
2018-03-11T12:17:01.259Z,98202.27
2018-03-11T12:19:27.596Z,98193.39
2018-03-11T12:21:53.868Z,98175.78
2018-03-11T12:24:20.152Z,98178.23
2018-03-11T12:26:46.408Z,98169.67
2018-03-11T12:29:14.481Z,98164.11
2018-03-11T12:31:42.565Z,98150.59
2018-03-11T12:34:08.818Z,98148.42
2018-03-11T12:36:35.181Z,98127.97
2018-03-11T12:39:01.492Z,98137.96
2018-03-11T12:41:27.784Z,98133.50
2018-03-11T12:43:54.138Z,98131.79
2018-03-11T12:46:20.503Z,98135.05
2018-03-11T12:48:47.359Z,98121.73
2018-03-11T12:51:13.743Z,98128.42
2018-03-11T12:53:40.105Z,98122.71
2018-03-11T12:56:06.432Z,98128.00
2018-03-11T12:58:32.803Z,98120.03
2018-03-11T13:00:59.876Z,98126.53
2018-03-11T13:03:26.189Z,98130.15
2018-03-11T13:05:53.218Z,98132.13
2018-03-11T13:08:19.509Z,98138.34
2018-03-11T13:10:45.880Z,98137.02
2018-03-11T13:13:12.219Z,98123.41
2018-03-11T13:15:38.572Z,98115.70
2018-03-11T13:18:05.682Z,98113.16
2018-03-11T13:20:50.688Z,98119.91
2018-03-11T13:23:18.062Z,98119.73
2018-03-11T13:25:44.468Z,98112.68
2018-03-11T13:28:29.240Z,98116.37
2018-03-11T13:30:56.304Z,98115.20
2018-03-11T13:33:41.526Z,98122.93
2018-03-11T13:36:07.947Z,98112.02
2018-03-11T13:38:52.885Z,98113.30
2018-03-11T13:41:19.178Z,98109.37
2018-03-11T13:43:46.220Z,98109.75
2018-03-11T13:46:31.852Z,98102.88
2018-03-11T13:48:58.235Z,98100.97
2018-03-11T13:51:43.096Z,98097.17
2018-03-11T13:54:10.299Z,98088.28
2018-03-11T13:56:36.581Z,98096.11
2018-03-11T13:59:02.888Z,98086.63
2018-03-11T14:01:29.148Z,98084.59
2018-03-11T14:03:56.193Z,98075.65
2018-03-11T14:06:22.531Z,98073.19
2018-03-11T14:08:49.591Z,98073.35
2018-03-11T14:11:15.934Z,98068.91
2018-03-11T14:13:42.303Z,98062.80
2018-03-11T14:16:08.634Z,98058.86
2018-03-11T14:18:34.949Z,98056.05
2018-03-11T14:21:01.256Z,98056.00
2018-03-11T14:23:27.630Z,98053.36
2018-03-11T14:25:53.956Z,98040.81
2018-03-11T14:28:20.391Z,98050.66
2018-03-11T14:30:46.734Z,98049.72
2018-03-11T14:33:13.095Z,98033.43
2018-03-11T14:35:40.188Z,98041.53
2018-03-11T14:38:06.602Z,98039.61
2018-03-11T14:40:32.967Z,98044.23
2018-03-11T14:42:59.436Z,98042.23
2018-03-11T14:45:25.763Z,98050.20
2018-03-11T14:47:52.174Z,98046.77
2018-03-11T14:50:18.597Z,98036.39
2018-03-11T14:52:44.943Z,98040.08
2018-03-11T14:55:11.285Z,98036.73
2018-03-11T14:57:37.649Z,98041.70
2018-03-11T15:00:03.985Z,98043.09
2018-03-11T15:02:31.032Z,98051.86
2018-03-11T15:04:57.375Z,98045.34
2018-03-11T15:07:23.733Z,98049.66
2018-03-11T15:10:04.528Z,98049.70
2018-03-11T15:12:30.848Z,98045.66
2018-03-11T15:14:57.102Z,98041.47
2018-03-11T15:17:23.496Z,98028.94
2018-03-11T15:19:49.816Z,98033.52
2018-03-11T15:22:16.178Z,98028.47
2018-03-11T15:24:42.591Z,98013.33
2018-03-11T15:27:08.876Z,98015.62
2018-03-11T15:29:35.931Z,98017.23
2018-03-11T15:32:03.077Z,98015.34
2018-03-11T15:34:29.415Z,98023.70
2018-03-11T15:36:56.443Z,98017.06
2018-03-11T15:39:22.850Z,98022.67
2018-03-11T15:41:49.184Z,98019.40
2018-03-11T15:44:15.572Z,98019.89
2018-03-11T15:46:41.848Z,98025.33
2018-03-11T15:49:08.926Z,98025.94
2018-03-11T15:51:36.008Z,98022.19
2018-03-11T15:54:02.318Z,98015.34
2018-03-11T15:56:29.360Z,98017.24
2018-03-11T15:58:55.868Z,98011.45
2018-03-11T16:01:22.251Z,98022.94
2018-03-11T16:03:48.536Z,98016.02
2018-03-11T16:06:14.817Z,98010.11
2018-03-11T16:08:41.206Z,98006.23
2018-03-11T16:11:07.533Z,98018.54
2018-03-11T16:13:33.867Z,98013.77
2018-03-11T16:16:00.923Z,98019.91
2018-03-11T16:18:28.155Z,98014.11
2018-03-11T16:20:54.443Z,98017.39
2018-03-11T16:23:20.738Z,98019.44
2018-03-11T16:25:47.745Z,98022.11
2018-03-11T16:28:14.085Z,98022.31
2018-03-11T16:30:40.398Z,98022.50
2018-03-11T16:33:06.759Z,98016.60
2018-03-11T16:35:33.049Z,98022.16
2018-03-11T16:37:59.313Z,98015.44
2018-03-11T16:40:25.632Z,98013.28
2018-03-11T16:42:51.964Z,98004.22
2018-03-11T16:45:19.022Z,98002.14
2018-03-11T16:47:45.420Z,97995.92
2018-03-11T16:50:11.732Z,98002.42
2018-03-11T16:52:38.048Z,97999.47
2018-03-11T16:55:05.097Z,97994.85
2018-03-11T16:57:32.120Z,97994.70
2018-03-11T16:59:59.225Z,97992.55
2018-03-11T17:02:25.641Z,97988.33
2018-03-11T17:04:52.707Z,97995.54
2018-03-11T17:07:19.065Z,97990.34
2018-03-11T17:09:45.420Z,97988.52
2018-03-11T17:12:11.742Z,97986.84
2018-03-11T17:14:38.107Z,97975.52
2018-03-11T17:17:05.316Z,97986.67
2018-03-11T17:19:31.790Z,97985.81
2018-03-11T17:21:58.852Z,97991.78
2018-03-11T17:24:26.152Z,97990.22
2018-03-11T17:26:52.497Z,97997.20
2018-03-11T17:29:18.860Z,97990.54
2018-03-11T17:31:46.423Z,97988.76
2018-03-11T17:34:13.579Z,97991.58
2018-03-11T17:36:39.883Z,97991.11
2018-03-11T17:39:06.303Z,97981.08
2018-03-11T17:41:32.663Z,97987.01
2018-03-11T17:43:59.672Z,97995.69
2018-03-11T17:46:25.961Z,97989.19
2018-03-11T17:48:52.315Z,97992.91
2018-03-11T17:51:18.615Z,97995.20
2018-03-11T17:53:46.689Z,97994.67
2018-03-11T17:56:12.984Z,97998.61
2018-03-11T17:58:39.278Z,97999.70
2018-03-11T18:01:05.664Z,97991.22
2018-03-11T18:03:31.992Z,97993.00
2018-03-11T18:05:59.047Z,97990.22
2018-03-11T18:08:26.081Z,97992.06
2018-03-11T18:10:53.131Z,97991.14
2018-03-11T18:13:19.396Z,97989.11
2018-03-11T18:15:45.957Z,97993.30
2018-03-11T18:18:12.533Z,97995.84
2018-03-11T18:20:39.733Z,97998.17
2018-03-11T18:23:06.401Z,97991.66
2018-03-11T18:25:33.050Z,97991.17
2018-03-11T18:27:59.595Z,97999.93
2018-03-11T18:30:27.361Z,97996.47
2018-03-11T18:32:55.005Z,97998.93
2018-03-11T18:35:21.647Z,98003.27
2018-03-11T18:37:48.212Z,98001.22
2018-03-11T18:40:15.346Z,97997.09
2018-03-11T18:42:41.708Z,97996.63
2018-03-11T18:45:08.992Z,97997.95
2018-03-11T18:47:35.460Z,97994.97
2018-03-11T18:50:02.277Z,97987.16
2018-03-11T18:52:28.658Z,97985.27
2018-03-11T18:54:55.791Z,97985.73
2018-03-11T18:57:22.217Z,97984.91
2018-03-11T18:59:48.541Z,97985.91
2018-03-11T19:02:14.927Z,97984.24
2018-03-11T19:04:41.356Z,97975.34
2018-03-11T19:07:07.875Z,97978.94
2018-03-11T19:09:35.038Z,97971.25
2018-03-11T19:12:02.341Z,97973.50
2018-03-11T19:14:28.806Z,97983.81
2018-03-11T19:16:55.918Z,97981.94
2018-03-11T19:19:22.446Z,97983.17
2018-03-11T19:21:48.904Z,97987.98
2018-03-11T19:24:15.348Z,97983.55
2018-03-11T19:26:41.684Z,97979.84
2018-03-11T19:29:08.620Z,97980.98
2018-03-11T19:31:35.013Z,97976.98
2018-03-11T19:34:01.423Z,97968.81
2018-03-11T19:36:27.883Z,97966.23
2018-03-11T19:38:56.065Z,97964.16
2018-03-11T19:41:22.535Z,97965.20
2018-03-11T19:43:49.025Z,97957.66
2018-03-11T19:46:15.655Z,97957.79
2018-03-11T19:48:42.074Z,97952.30
2018-03-11T19:51:12.376Z,97952.39
2018-03-11T19:53:38.846Z,97945.33
2018-03-11T19:56:05.257Z,97943.27
2018-03-11T19:58:32.276Z,97939.17
2018-03-11T20:00:58.630Z,97942.15
2018-03-11T20:03:25.978Z,97946.61
2018-03-11T20:05:52.999Z,97940.80
2018-03-11T20:08:19.333Z,97941.91
2018-03-11T20:10:45.659Z,97939.70
2018-03-11T20:13:12.018Z,97945.09
2018-03-11T20:15:39.087Z,97937.84
2018-03-11T20:18:06.359Z,97938.00
2018-03-11T20:20:32.701Z,97930.28
2018-03-11T20:22:59.480Z,97934.67
2018-03-11T20:25:25.814Z,97928.20
2018-03-11T20:27:52.147Z,97934.20
2018-03-11T20:30:18.561Z,97932.19
2018-03-11T20:32:45.144Z,97933.30
2018-03-11T20:35:11.483Z,97935.72
2018-03-11T20:37:38.586Z,97929.07
2018-03-11T20:40:04.870Z,97919.55
2018-03-11T20:42:31.204Z,97927.24
2018-03-11T20:44:57.535Z,97925.81
2018-03-11T20:47:23.831Z,97922.59
2018-03-11T20:49:50.928Z,97929.27
2018-03-11T20:52:17.217Z,97927.55
2018-03-11T20:54:44.267Z,97925.31
2018-03-11T20:57:13.754Z,97912.53
2018-03-11T20:59:40.103Z,97904.98
2018-03-11T21:02:07.146Z,97903.38
2018-03-11T21:04:34.374Z,97903.74
2018-03-11T21:07:00.717Z,97897.52
2018-03-11T21:09:27.017Z,97904.92
2018-03-11T21:11:53.342Z,97894.13
2018-03-11T21:14:19.680Z,97892.92
2018-03-11T21:16:45.942Z,97897.15
2018-03-11T21:19:12.242Z,97897.84
2018-03-11T21:21:39.797Z,97895.13
2018-03-11T21:24:06.137Z,97891.59
2018-03-11T21:27:04.414Z,97895.30
2018-03-11T21:29:30.771Z,97883.77
2018-03-11T21:31:57.097Z,97880.80
2018-03-11T21:34:25.376Z,97882.58
2018-03-11T21:36:51.696Z,97879.20
2018-03-11T21:39:18.194Z,97876.91
2018-03-11T21:41:44.471Z,97875.70
2018-03-11T21:44:10.802Z,97876.78
2018-03-11T21:46:37.073Z,97872.45
2018-03-11T21:49:04.145Z,97868.63
2018-03-11T21:51:30.460Z,97864.23
2018-03-11T21:53:56.771Z,97859.14
2018-03-11T21:56:23.115Z,97857.63
2018-03-11T21:58:50.335Z,97851.53
2018-03-11T22:01:16.650Z,97853.22
2018-03-11T22:03:42.921Z,97854.64
2018-03-11T22:06:09.993Z,97845.52
2018-03-11T22:08:36.323Z,97829.55
2018-03-11T22:11:02.635Z,97827.95
2018-03-11T22:13:29.708Z,97833.81
2018-03-11T22:15:56.034Z,97835.31
2018-03-11T22:18:22.392Z,97835.13
2018-03-11T22:20:48.745Z,97833.74
2018-03-11T22:23:15.051Z,97839.77
2018-03-11T22:25:41.366Z,97833.38
2018-03-11T22:28:07.698Z,97823.83
2018-03-11T22:30:35.116Z,97819.48
2018-03-11T22:33:01.419Z,97824.58
2018-03-11T22:35:27.729Z,97820.34
2018-03-11T22:37:54.072Z,97816.39
2018-03-11T22:40:20.379Z,97819.47
2018-03-11T22:42:46.646Z,97819.95
2018-03-11T22:45:12.960Z,97803.67
2018-03-11T22:47:39.268Z,97814.31
2018-03-11T22:50:05.603Z,97799.86
2018-03-11T22:52:31.923Z,97801.18
2018-03-11T22:54:58.215Z,97809.45
2018-03-11T22:57:24.566Z,97801.01
2018-03-11T22:59:51.622Z,97792.25
2018-03-11T23:02:17.922Z,97792.91
2018-03-11T23:04:44.272Z,97783.85
2018-03-11T23:07:11.320Z,97781.83
2018-03-11T23:09:38.360Z,97775.75
2018-03-11T23:12:04.663Z,97779.22
2018-03-11T23:14:30.930Z,97776.36
2018-03-11T23:16:57.224Z,97766.78
2018-03-11T23:19:23.545Z,97770.47
2018-03-11T23:21:49.832Z,97771.20
2018-03-11T23:24:16.114Z,97759.95
2018-03-11T23:26:42.449Z,97758.14
2018-03-11T23:29:08.759Z,97754.75
2018-03-11T23:31:35.071Z,97754.45
2018-03-11T23:34:01.400Z,97746.97
2018-03-11T23:36:27.711Z,97744.72
2018-03-11T23:38:54.757Z,97738.48
2018-03-11T23:41:21.060Z,97737.07
2018-03-11T23:43:47.427Z,97738.95
2018-03-11T23:46:13.703Z,97734.84
2018-03-11T23:48:40.001Z,97725.27
2018-03-11T23:51:06.283Z,97725.19
2018-03-11T23:53:32.575Z,97725.00
2018-03-11T23:55:58.947Z,97721.50
2018-03-11T23:58:25.239Z,97726.03
